Time;durP1;ratioP1;P1;durP2;ratioP2;P2;SDS_P1;SDS_P2;PMS_P1;PMS_P2;Temp;Humidity;BMP_temperature;BMP_pressure;BME280_temperature;BME280_humidity;BME280_pressure;Samples;Min_cycle;Max_cycle;Signal;HPM_P1;HPM_P2
2023/10/26 00:02:18;;;;;;;1.00;1.00;;;;;;;;;;5032649;28;20202;-75
2023/10/26 00:04:45;;;;;;;1.23;1.10;;;;;;;;;;5021488;28;20248;-76
2023/10/26 00:07:14;;;;;;;1.20;1.10;;;;;;;;;;5044972;28;20256;-76
2023/10/26 00:09:41;;;;;;;1.60;1.50;;;;;;;;;;5045286;28;20233;-76
2023/10/26 00:12:08;;;;;;;2.03;1.03;;;;;;;;;;5050156;28;20232;-77
2023/10/26 00:14:36;;;;;;;0.93;0.80;;;;;;;;;;5047166;28;20234;-76
2023/10/26 00:17:03;;;;;;;1.30;1.20;;;;;;;;;;5037972;28;20248;-74
2023/10/26 00:19:32;;;;;;;1.23;1.00;;;;;;;;;;5028496;28;20198;-74
2023/10/26 00:22:01;;;;;;;1.27;0.97;;;;;;;;;;5037128;28;20199;-76
2023/10/26 00:24:28;;;;;;;1.57;1.10;;;;;;;;;;5029024;28;20214;-76
2023/10/26 00:27:00;;;;;;;1.50;1.20;;;;;;;;;;5030045;28;20206;-76
2023/10/26 00:29:27;;;;;;;1.23;1.10;;;;;;;;;;5029378;28;20203;-76
2023/10/26 00:31:58;;;;;;;1.63;0.90;;;;;;;;;;5025719;28;20231;-77
2023/10/26 00:34:33;;;;;;;1.00;1.00;;;;;;;;;;5032669;28;20234;-75
2023/10/26 00:37:03;;;;;;;1.83;1.00;;;;;;;;;;5048864;28;20193;-77
2023/10/26 00:39:32;;;;;;;1.40;1.10;;;;;;;;;;5041763;28;20268;-75
2023/10/26 00:42:03;;;;;;;2.07;1.10;;;;;;;;;;5035902;28;20270;-75
2023/10/26 00:44:30;;;;;;;0.80;0.80;;;;;;;;;;5022753;28;20891;-74
2023/10/26 00:47:01;;;;;;;1.27;0.80;;;;;;;;;;5023999;28;20632;-74
2023/10/26 00:49:30;;;;;;;1.20;1.10;;;;;;;;;;5049890;28;20235;-76
2023/10/26 00:52:00;;;;;;;2.03;1.03;;;;;;;;;;5043744;28;20226;-76
2023/10/26 00:54:29;;;;;;;1.43;0.90;;;;;;;;;;5024550;28;20229;-74
2023/10/26 00:56:57;;;;;;;0.90;0.90;;;;;;;;;;5035295;28;20211;-75
2023/10/26 00:59:28;;;;;;;1.13;1.00;;;;;;;;;;5041589;28;20230;-74
2023/10/26 01:01:58;;;;;;;1.23;0.73;;;;;;;;;;5040256;28;20202;-76
2023/10/26 01:04:29;;;;;;;1.53;0.77;;;;;;;;;;5044865;28;20214;-75
2023/10/26 01:06:57;;;;;;;1.57;0.80;;;;;;;;;;5040320;28;20229;-75
2023/10/26 01:09:25;;;;;;;0.90;0.90;;;;;;;;;;5034543;28;20211;-75
2023/10/26 01:11:56;;;;;;;2.57;1.17;;;;;;;;;;5031641;28;20230;-75
2023/10/26 01:14:24;;;;;;;1.43;0.70;;;;;;;;;;5031493;28;20232;-74
2023/10/26 01:16:51;;;;;;;2.33;0.90;;;;;;;;;;5035132;28;20528;-75
2023/10/26 01:19:20;;;;;;;0.87;0.83;;;;;;;;;;5021919;28;20207;-75
2023/10/26 01:21:58;;;;;;;1.37;0.90;;;;;;;;;;5019636;28;20214;-74
2023/10/26 01:24:28;;;;;;;0.97;0.90;;;;;;;;;;5034277;28;20613;-75
2023/10/26 01:26:56;;;;;;;1.90;0.90;;;;;;;;;;5037199;28;20234;-77
2023/10/26 01:29:24;;;;;;;2.90;1.10;;;;;;;;;;5035665;28;20205;-76
2023/10/26 01:31:53;;;;;;;2.03;0.90;;;;;;;;;;5035638;28;20233;-75
2023/10/26 01:34:21;;;;;;;1.03;0.80;;;;;;;;;;5040227;28;20318;-74
2023/10/26 01:36:49;;;;;;;0.80;0.80;;;;;;;;;;5041933;28;20211;-76
2023/10/26 01:39:19;;;;;;;1.10;1.00;;;;;;;;;;5032684;28;20667;-76
2023/10/26 01:41:47;;;;;;;2.50;1.00;;;;;;;;;;5019302;28;20231;-75
2023/10/26 01:44:15;;;;;;;0.93;0.93;;;;;;;;;;5023115;28;20270;-75
2023/10/26 01:46:46;;;;;;;1.70;1.07;;;;;;;;;;5031154;28;20284;-76
2023/10/26 01:49:15;;;;;;;2.20;1.07;;;;;;;;;;5028256;28;20311;-75
2023/10/26 01:51:43;;;;;;;1.10;1.00;;;;;;;;;;5031751;28;20274;-75
2023/10/26 01:54:10;;;;;;;3.13;1.27;;;;;;;;;;5042332;28;20222;-77
2023/10/26 01:56:39;;;;;;;1.07;0.80;;;;;;;;;;5030747;28;20199;-76
2023/10/26 01:59:10;;;;;;;1.43;0.87;;;;;;;;;;5023064;28;20209;-75
2023/10/26 02:01:37;;;;;;;0.97;0.90;;;;;;;;;;5025460;28;20218;-77
2023/10/26 02:04:08;;;;;;;1.20;1.10;;;;;;;;;;5038611;28;20295;-76
2023/10/26 02:06:36;;;;;;;2.13;0.90;;;;;;;;;;5054206;28;20301;-76
2023/10/26 02:09:09;;;;;;;1.63;1.00;;;;;;;;;;5036631;28;20217;-76
2023/10/26 02:11:38;;;;;;;1.27;1.10;;;;;;;;;;5031410;28;20608;-74
2023/10/26 02:14:05;;;;;;;2.23;1.07;;;;;;;;;;5044777;28;20294;-74
2023/10/26 02:16:33;;;;;;;0.93;0.93;;;;;;;;;;5024553;28;20199;-76
2023/10/26 02:19:03;;;;;;;1.00;0.80;;;;;;;;;;5036830;28;20207;-74
2023/10/26 02:21:31;;;;;;;3.60;1.17;;;;;;;;;;5037792;28;20224;-76
2023/10/26 02:24:02;;;;;;;2.33;1.00;;;;;;;;;;5045841;28;20613;-75
2023/10/26 02:26:30;;;;;;;1.20;1.10;;;;;;;;;;5018997;28;20202;-74
2023/10/26 02:28:57;;;;;;;1.30;1.20;;;;;;;;;;5042056;28;20695;-75
2023/10/26 02:31:25;;;;;;;1.07;1.00;;;;;;;;;;5039407;28;20238;-75
2023/10/26 02:33:55;;;;;;;1.27;1.17;;;;;;;;;;5036502;28;20589;-75
2023/10/26 02:36:22;;;;;;;2.87;0.90;;;;;;;;;;5042688;28;20662;-75
2023/10/26 02:38:50;;;;;;;1.73;1.57;;;;;;;;;;5038227;28;20214;-75
2023/10/26 02:41:19;;;;;;;3.53;2.03;;;;;;;;;;5047178;28;20226;-74
2023/10/26 02:43:48;;;;;;;2.50;1.50;;;;;;;;;;5039203;28;20215;-75
2023/10/26 02:46:15;;;;;;;1.80;1.70;;;;;;;;;;5030940;28;20214;-76
2023/10/26 02:48:45;;;;;;;1.70;1.60;;;;;;;;;;5029750;28;20207;-75
2023/10/26 02:51:18;;;;;;;3.53;1.70;;;;;;;;;;5025559;28;20234;-74
2023/10/26 02:53:45;;;;;;;2.77;1.67;;;;;;;;;;5042344;28;20233;-74
2023/10/26 02:56:12;;;;;;;2.10;1.60;;;;;;;;;;5040266;28;20233;-76
2023/10/26 02:58:40;;;;;;;2.97;1.77;;;;;;;;;;5042578;28;20209;-75
2023/10/26 03:01:17;;;;;;;2.33;1.70;;;;;;;;;;5047975;28;20689;-76
2023/10/26 03:03:45;;;;;;;1.87;1.37;;;;;;;;;;5031401;28;20663;-77
2023/10/26 03:06:15;;;;;;;1.30;1.30;;;;;;;;;;5024078;28;20238;-76
2023/10/26 03:08:44;;;;;;;2.77;1.50;;;;;;;;;;5038712;28;20199;-76
2023/10/26 03:11:12;;;;;;;2.50;2.30;;;;;;;;;;5027442;28;20301;-77
2023/10/26 03:13:40;;;;;;;4.20;2.70;;;;;;;;;;5008300;28;20285;-74
2023/10/26 03:16:08;;;;;;;3.10;2.80;;;;;;;;;;5035860;28;20690;-75
2023/10/26 03:18:39;;;;;;;2.53;2.10;;;;;;;;;;5036465;28;20250;-76
2023/10/26 03:21:06;;;;;;;2.00;1.80;;;;;;;;;;5030172;28;20226;-74
2023/10/26 03:23:35;;;;;;;2.13;2.03;;;;;;;;;;5039835;28;20686;-74
2023/10/26 03:26:02;;;;;;;3.73;2.43;;;;;;;;;;5023827;28;20210;-75
2023/10/26 03:28:32;;;;;;;2.70;2.50;;;;;;;;;;5046271;28;20234;-75
2023/10/26 03:31:00;;;;;;;4.33;2.80;;;;;;;;;;5045153;28;20262;-75
2023/10/26 03:33:27;;;;;;;4.00;2.73;;;;;;;;;;5036271;28;20309;-76
2023/10/26 03:35:55;;;;;;;3.90;2.90;;;;;;;;;;5035384;28;20294;-75
2023/10/26 03:38:24;;;;;;;3.73;2.47;;;;;;;;;;5040903;28;20225;-77
2023/10/26 03:40:51;;;;;;;7.60;3.60;;;;;;;;;;5041990;28;20222;-75
2023/10/26 03:43:21;;;;;;;3.57;3.23;;;;;;;;;;5053408;28;20202;-76
2023/10/26 03:45:48;;;;;;;2.83;2.40;;;;;;;;;;5031191;28;20206;-75
2023/10/26 03:48:17;;;;;;;2.90;2.17;;;;;;;;;;5038180;28;20206;-76
2023/10/26 03:50:51;;;;;;;2.27;2.10;;;;;;;;;;5030596;28;20265;-74
2023/10/26 03:53:23;;;;;;;3.37;2.10;;;;;;;;;;5050023;28;20214;-75
2023/10/26 03:55:50;;;;;;;2.00;1.90;;;;;;;;;;5013024;28;20334;-76
2023/10/26 03:58:21;;;;;;;2.33;1.97;;;;;;;;;;5029940;28;20237;-75
2023/10/26 04:00:49;;;;;;;2.20;2.00;;;;;;;;;;5037282;28;20226;-74
2023/10/26 04:03:16;;;;;;;2.30;2.00;;;;;;;;;;5028901;28;20250;-74
2023/10/26 04:05:43;;;;;;;2.20;2.00;;;;;;;;;;5033732;28;20210;-76
2023/10/26 04:08:14;;;;;;;2.00;1.90;;;;;;;;;;5030653;28;20576;-75
2023/10/26 04:10:44;;;;;;;2.43;2.20;;;;;;;;;;5030725;28;20311;-75
2023/10/26 04:13:14;;;;;;;2.37;1.97;;;;;;;;;;5028931;28;20203;-76
2023/10/26 04:15:42;;;;;;;2.03;1.80;;;;;;;;;;5032098;28;20595;-76
2023/10/26 04:18:11;;;;;;;3.53;2.00;;;;;;;;;;5028713;28;20211;-77
2023/10/26 04:20:42;;;;;;;2.23;2.03;;;;;;;;;;5022238;28;20226;-76
2023/10/26 04:23:11;;;;;;;3.00;2.70;;;;;;;;;;5021939;28;20200;-76
2023/10/26 04:25:38;;;;;;;2.97;2.63;;;;;;;;;;5029289;28;20646;-76
2023/10/26 04:28:21;;;;;;;2.57;1.93;;;;;;;;;;5039127;28;20211;-75
2023/10/26 04:30:49;;;;;;;2.50;1.80;;;;;;;;;;5056405;28;20321;-75
2023/10/26 04:33:34;;;;;;;;;;;;;;;;;;;;;
2023/10/26 04:36:09;;;;;;;1.60;1.50;;;;;;;;;;5038433;28;20223;-78
2023/10/26 04:38:39;;;;;;;3.57;1.90;;;;;;;;;;5035333;28;20293;-74
2023/10/26 04:41:13;;;;;;;1.87;1.77;;;;;;;;;;5034975;28;20226;-74
2023/10/26 04:43:40;;;;;;;2.10;1.90;;;;;;;;;;5038149;28;20659;-76
2023/10/26 04:46:13;;;;;;;1.77;1.67;;;;;;;;;;5019405;28;20677;-75
2023/10/26 04:48:41;;;;;;;1.97;1.50;;;;;;;;;;5035614;28;20786;-75
2023/10/26 04:51:24;;;;;;;1.40;1.40;;;;;;;;;;5035805;28;20496;-75
2023/10/26 04:53:52;;;;;;;2.00;1.63;;;;;;;;;;5046163;28;20782;-77
2023/10/26 04:56:23;;;;;;;2.00;1.90;;;;;;;;;;5035195;28;20222;-75
2023/10/26 04:58:50;;;;;;;3.33;1.73;;;;;;;;;;5018228;28;20696;-75
2023/10/26 05:01:17;;;;;;;1.70;1.60;;;;;;;;;;5037343;28;20233;-74
2023/10/26 05:03:49;;;;;;;2.20;1.77;;;;;;;;;;5047485;28;20202;-75
2023/10/26 05:06:25;;;;;;;2.00;1.80;;;;;;;;;;5051330;28;20214;-77
2023/10/26 05:08:54;;;;;;;1.70;1.60;;;;;;;;;;5035313;28;20211;-75
2023/10/26 05:11:21;;;;;;;1.60;1.50;;;;;;;;;;5021503;28;20254;-76
2023/10/26 05:13:52;;;;;;;1.77;1.60;;;;;;;;;;5024702;28;20222;-77
2023/10/26 05:16:22;;;;;;;3.50;1.80;;;;;;;;;;5041544;28;20219;-74
2023/10/26 05:18:54;;;;;;;2.00;1.90;;;;;;;;;;5026513;28;20237;-76
2023/10/26 05:21:22;;;;;;;1.60;1.50;;;;;;;;;;5044456;28;20262;-76
2023/10/26 05:23:49;;;;;;;2.30;1.57;;;;;;;;;;5019796;28;20253;-75
2023/10/26 05:26:19;;;;;;;2.60;1.80;;;;;;;;;;5041139;28;20679;-75
2023/10/26 05:28:47;;;;;;;2.30;1.70;;;;;;;;;;5029204;28;20257;-75
2023/10/26 05:31:14;;;;;;;3.70;1.70;;;;;;;;;;5036406;28;20226;-76
2023/10/26 05:33:43;;;;;;;2.77;1.90;;;;;;;;;;5015009;28;20659;-75
2023/10/26 05:36:10;;;;;;;3.43;1.90;;;;;;;;;;5032738;28;20272;-76
2023/10/26 05:38:37;;;;;;;1.93;1.80;;;;;;;;;;5030355;28;20288;-76
2023/10/26 05:41:05;;;;;;;1.70;1.60;;;;;;;;;;5028346;28;20218;-75
2023/10/26 05:43:33;;;;;;;2.07;1.90;;;;;;;;;;5031976;28;20199;-74
2023/10/26 05:46:05;;;;;;;1.87;1.70;;;;;;;;;;5040191;28;20654;-75
2023/10/26 05:48:33;;;;;;;1.97;1.87;;;;;;;;;;5041165;28;20291;-75
2023/10/26 05:51:00;;;;;;;2.10;2.00;;;;;;;;;;5034903;28;20321;-77
2023/10/26 05:53:28;;;;;;;2.20;1.90;;;;;;;;;;5037207;28;20214;-75
2023/10/26 05:55:59;;;;;;;2.00;1.90;;;;;;;;;;5038455;28;20234;-75
2023/10/26 05:58:29;;;;;;;2.37;1.90;;;;;;;;;;5025333;28;20191;-75
2023/10/26 06:00:58;;;;;;;2.20;1.90;;;;;;;;;;5012453;28;20602;-77
2023/10/26 06:03:25;;;;;;;2.20;2.00;;;;;;;;;;5036056;28;20634;-76
2023/10/26 06:06:22;;;;;;;1.97;1.73;;;;;;;;;;5032202;28;20683;-74
2023/10/26 06:08:52;;;;;;;2.33;2.17;;;;;;;;;;5015402;28;20496;-76
2023/10/26 06:11:19;;;;;;;2.70;2.30;;;;;;;;;;5030003;28;20231;-77
2023/10/26 06:13:47;;;;;;;2.43;2.00;;;;;;;;;;5030831;28;20416;-76
2023/10/26 06:16:16;;;;;;;2.30;2.10;;;;;;;;;;5034369;28;20231;-76
2023/10/26 06:18:46;;;;;;;2.13;2.03;;;;;;;;;;5022597;28;20203;-76
2023/10/26 06:21:16;;;;;;;2.20;2.10;;;;;;;;;;5032953;28;20310;-75
2023/10/26 06:23:44;;;;;;;4.27;2.90;;;;;;;;;;5033994;28;20203;-75
2023/10/26 06:26:14;;;;;;;2.30;1.97;;;;;;;;;;5031616;28;20207;-75
2023/10/26 06:28:42;;;;;;;2.40;2.20;;;;;;;;;;5020051;28;20203;-79
2023/10/26 06:31:35;;;;;;;2.20;2.00;;;;;;;;;;5028137;28;20246;-74
2023/10/26 06:34:02;;;;;;;2.00;1.90;;;;;;;;;;5042500;28;20206;-75
2023/10/26 06:36:33;;;;;;;2.00;1.90;;;;;;;;;;5024027;28;20284;-75
2023/10/26 06:39:02;;;;;;;3.93;1.80;;;;;;;;;;5027788;28;20210;-76
2023/10/26 06:41:29;;;;;;;2.20;2.00;;;;;;;;;;5034610;28;20258;-77
2023/10/26 06:43:57;;;;;;;2.60;2.10;;;;;;;;;;5023592;28;20199;-74
2023/10/26 06:46:24;;;;;;;1.80;1.70;;;;;;;;;;5032422;28;21135;-77
2023/10/26 06:48:52;;;;;;;3.57;1.90;;;;;;;;;;5037536;28;20241;-75
2023/10/26 06:51:19;;;;;;;1.80;1.70;;;;;;;;;;5039715;28;20269;-75
2023/10/26 06:53:50;;;;;;;2.30;2.00;;;;;;;;;;5015358;28;20231;-75
2023/10/26 06:56:18;;;;;;;1.87;1.77;;;;;;;;;;5016708;28;20280;-74
2023/10/26 06:58:49;;;;;;;1.80;1.70;;;;;;;;;;5007645;28;20205;-76
2023/10/26 07:01:21;;;;;;;1.67;1.40;;;;;;;;;;5035366;28;20721;-77
2023/10/26 07:03:52;;;;;;;1.80;1.70;;;;;;;;;;5039057;28;20207;-74
2023/10/26 07:06:25;;;;;;;1.53;1.43;;;;;;;;;;5042112;28;20210;-75
2023/10/26 07:08:53;;;;;;;1.57;1.47;;;;;;;;;;5039634;28;20226;-77
2023/10/26 07:11:23;;;;;;;1.30;1.30;;;;;;;;;;5033874;28;20246;-74
2023/10/26 07:14:00;;;;;;;1.50;1.40;;;;;;;;;;5030396;28;20207;-75
2023/10/26 07:16:28;;;;;;;1.53;1.47;;;;;;;;;;5037961;28;20241;-76
2023/10/26 07:18:55;;;;;;;1.53;1.43;;;;;;;;;;5030557;28;20238;-76
2023/10/26 07:21:26;;;;;;;2.17;1.53;;;;;;;;;;5029056;28;20223;-75
2023/10/26 07:23:54;;;;;;;1.70;1.40;;;;;;;;;;5032185;28;20199;-74
2023/10/26 07:26:23;;;;;;;1.63;1.40;;;;;;;;;;5036841;28;20229;-76
2023/10/26 07:28:55;;;;;;;1.47;1.37;;;;;;;;;;5018610;28;20232;-75
2023/10/26 07:31:22;;;;;;;1.50;1.40;;;;;;;;;;5034553;28;20485;-74
2023/10/26 07:33:50;;;;;;;2.10;1.30;;;;;;;;;;5033416;28;20211;-77
2023/10/26 07:36:20;;;;;;;1.73;1.40;;;;;;;;;;5022902;28;20224;-76
2023/10/26 07:38:47;;;;;;;1.33;1.30;;;;;;;;;;5030686;28;20981;-74
2023/10/26 07:41:35;;;;;;;1.37;1.37;;;;;;;;;;5036213;28;20221;-76
2023/10/26 07:44:26;;;;;;;1.10;1.10;;;;;;;;;;5027019;28;20275;-77
2023/10/26 07:46:53;;;;;;;1.00;1.00;;;;;;;;;;5031699;28;20265;-74
2023/10/26 07:49:21;;;;;;;3.03;1.30;;;;;;;;;;5032473;28;20234;-76
2023/10/26 07:51:49;;;;;;;0.90;0.90;;;;;;;;;;5025458;28;20234;-75
2023/10/26 07:54:19;;;;;;;1.30;1.20;;;;;;;;;;5024126;28;20238;-76
2023/10/26 07:56:51;;;;;;;2.20;2.00;;;;;;;;;;5030171;28;20218;-75
2023/10/26 07:59:18;;;;;;;4.13;3.50;;;;;;;;;;5030595;28;20204;-75
2023/10/26 08:01:47;;;;;;;4.80;3.90;;;;;;;;;;5030658;28;20222;-74
2023/10/26 08:04:15;;;;;;;3.50;2.60;;;;;;;;;;5025712;28;20846;-76
2023/10/26 08:06:45;;;;;;;5.17;4.03;;;;;;;;;;5008906;28;20226;-75
2023/10/26 08:09:13;;;;;;;1.77;1.67;;;;;;;;;;5035060;28;20253;-75
2023/10/26 08:11:44;;;;;;;1.60;1.50;;;;;;;;;;5034667;28;20234;-75
2023/10/26 08:14:11;;;;;;;1.40;1.30;;;;;;;;;;5025765;28;20718;-75
2023/10/26 08:17:05;;;;;;;1.63;1.53;;;;;;;;;;5031708;28;20320;-78
2023/10/26 08:19:33;;;;;;;1.20;1.20;;;;;;;;;;5018049;28;20282;-76
2023/10/26 08:22:04;;;;;;;2.00;1.90;;;;;;;;;;5037601;28;20702;-75
2023/10/26 08:24:31;;;;;;;1.90;1.70;;;;;;;;;;5036835;28;20210;-75
2023/10/26 08:27:02;;;;;;;1.40;1.40;;;;;;;;;;5012856;28;20404;-75
2023/10/26 08:29:29;;;;;;;1.10;1.10;;;;;;;;;;5032625;28;20206;-79
2023/10/26 08:31:57;;;;;;;1.23;1.23;;;;;;;;;;5016012;28;20227;-74
2023/10/26 08:34:24;;;;;;;1.30;1.30;;;;;;;;;;5015468;28;20219;-75
2023/10/26 08:36:53;;;;;;;1.00;1.00;;;;;;;;;;5036852;28;20645;-76
2023/10/26 08:39:39;;;;;;;1.10;1.10;;;;;;;;;;5029989;28;20209;-76
2023/10/26 08:42:12;;;;;;;0.80;0.80;;;;;;;;;;5024634;28;20228;-74
2023/10/26 08:44:46;;;;;;;1.10;1.10;;;;;;;;;;5013288;28;20662;-75
2023/10/26 08:47:40;;;;;;;1.65;0.70;;;;;;;;;;5026189;28;20671;-76
2023/10/26 08:50:13;;;;;;;1.30;1.30;;;;;;;;;;5013861;28;20253;-75
2023/10/26 08:53:08;;;;;;;0.90;0.90;;;;;;;;;;5040444;28;20213;-77
2023/10/26 08:55:40;;;;;;;1.10;1.00;;;;;;;;;;5021525;28;20242;-80
2023/10/26 08:58:08;;;;;;;1.10;1.10;;;;;;;;;;5036964;28;20290;-77
2023/10/26 09:00:39;;;;;;;1.50;1.40;;;;;;;;;;5034397;28;20226;-77
2023/10/26 09:03:23;;;;;;;2.28;1.67;;;;;;;;;;5030441;28;20704;-79
2023/10/26 09:05:52;;;;;;;1.70;1.60;;;;;;;;;;5042687;28;20211;-77
2023/10/26 09:08:23;;;;;;;2.30;2.10;;;;;;;;;;5036824;28;20290;-76
2023/10/26 09:10:51;;;;;;;3.63;3.33;;;;;;;;;;5036509;28;20231;-77
2023/10/26 09:13:28;;;;;;;1.50;1.40;;;;;;;;;;5043029;28;20219;-76
2023/10/26 09:16:01;;;;;;;1.80;1.23;;;;;;;;;;5038102;28;20238;-75
2023/10/26 09:18:28;;;;;;;0.90;0.90;;;;;;;;;;5032601;28;20195;-75
2023/10/26 09:21:03;;;;;;;1.00;1.00;;;;;;;;;;5018994;28;20214;-77
2023/10/26 09:23:32;;;;;;;0.90;0.90;;;;;;;;;;5012844;28;20202;-77
2023/10/26 09:26:00;;;;;;;1.00;1.00;;;;;;;;;;5014561;28;20338;-76
2023/10/26 09:28:28;;;;;;;0.70;0.70;;;;;;;;;;5031560;28;20211;-78
2023/10/26 09:30:59;;;;;;;0.90;0.90;;;;;;;;;;5032726;28;20296;-77
2023/10/26 09:33:27;;;;;;;0.70;0.70;;;;;;;;;;5035010;28;20229;-77
2023/10/26 09:35:55;;;;;;;0.73;0.73;;;;;;;;;;5016213;28;20292;-80
2023/10/26 09:38:35;;;;;;;0.73;0.73;;;;;;;;;;5037927;28;20404;-77
2023/10/26 09:41:06;;;;;;;0.87;0.70;;;;;;;;;;5014254;28;20305;-76
2023/10/26 09:43:37;;;;;;;0.70;0.70;;;;;;;;;;5033425;28;20227;-76
2023/10/26 09:46:05;;;;;;;1.17;0.90;;;;;;;;;;5028336;28;20230;-76
2023/10/26 09:48:34;;;;;;;1.10;1.10;;;;;;;;;;5031571;28;20582;-75
2023/10/26 09:51:05;;;;;;;0.98;0.98;;;;;;;;;;5028027;28;20233;-78
2023/10/26 09:53:47;;;;;;;2.20;2.10;;;;;;;;;;5026485;28;20270;-79
2023/10/26 09:56:20;;;;;;;0.77;0.77;;;;;;;;;;5024971;28;20497;-78
2023/10/26 09:58:59;;;;;;;0.80;0.80;;;;;;;;;;5035619;28;20284;-77
2023/10/26 10:01:33;;;;;;;0.65;0.65;;;;;;;;;;5030449;28;20226;-77
2023/10/26 10:04:02;;;;;;;0.93;0.93;;;;;;;;;;5026281;28;20210;-77
2023/10/26 10:06:58;;;;;;;0.80;0.80;;;;;;;;;;5029613;28;20211;-76
2023/10/26 10:09:55;;;;;;;0.80;0.80;;;;;;;;;;5020219;28;20206;-76
2023/10/26 10:12:27;;;;;;;0.70;0.70;;;;;;;;;;4996503;28;20202;-75
2023/10/26 10:14:57;;;;;;;1.33;0.70;;;;;;;;;;5011731;28;20650;-75
2023/10/26 10:17:51;;;;;;;1.48;0.80;;;;;;;;;;5012602;28;20245;-77
2023/10/26 10:20:24;;;;;;;0.75;0.75;;;;;;;;;;5020813;28;20262;-75
2023/10/26 10:23:08;;;;;;;0.70;0.70;;;;;;;;;;5039403;28;20220;-76
2023/10/26 10:26:13;;;;;;;0.68;0.63;;;;;;;;;;5036911;28;20211;-76
2023/10/26 10:28:56;;;;;;;1.48;0.82;;;;;;;;;;5032477;28;20344;-77
2023/10/26 10:31:26;;;;;;;0.80;0.80;;;;;;;;;;5014797;28;20313;-75
2023/10/26 10:34:02;;;;;;;0.95;0.70;;;;;;;;;;5029746;28;20687;-78
2023/10/26 10:36:30;;;;;;;0.70;0.70;;;;;;;;;;5037752;28;20325;-76
2023/10/26 10:39:17;;;;;;;1.90;0.77;;;;;;;;;;5031687;28;20216;-77
2023/10/26 10:41:44;;;;;;;0.90;0.80;;;;;;;;;;5039026;28;20219;-74
2023/10/26 10:44:12;;;;;;;1.83;0.90;;;;;;;;;;5034467;28;20728;-77
2023/10/26 10:46:39;;;;;;;1.08;0.98;;;;;;;;;;5043342;28;20573;-77
2023/10/26 10:49:08;;;;;;;2.00;1.00;;;;;;;;;;5036295;28;20545;-77
2023/10/26 10:51:40;;;;;;;3.50;1.20;;;;;;;;;;5038975;28;20226;-75
2023/10/26 10:54:08;;;;;;;2.65;1.10;;;;;;;;;;5034630;28;20206;-75
2023/10/26 10:56:58;;;;;;;4.25;1.35;;;;;;;;;;5042082;28;20228;-78
2023/10/26 10:59:30;;;;;;;2.17;1.38;;;;;;;;;;5033143;28;20262;-76
2023/10/26 11:02:11;;;;;;;2.53;1.10;;;;;;;;;;5042766;28;20226;-78
2023/10/26 11:04:55;;;;;;;3.40;1.45;;;;;;;;;;5027895;28;20246;-75
2023/10/26 11:07:35;;;;;;;3.53;1.58;;;;;;;;;;5024241;28;20585;-77
2023/10/26 11:10:03;;;;;;;3.42;1.20;;;;;;;;;;5035621;28;20223;-75
2023/10/26 11:12:52;;;;;;;3.25;1.50;;;;;;;;;;5048103;28;20198;-74
2023/10/26 11:15:19;;;;;;;5.20;1.63;;;;;;;;;;5025244;28;20230;-77
2023/10/26 11:17:47;;;;;;;2.50;1.65;;;;;;;;;;5042287;28;20357;-75
2023/10/26 11:20:38;;;;;;;4.88;1.60;;;;;;;;;;5019302;28;20278;-77
2023/10/26 11:23:06;;;;;;;4.65;1.65;;;;;;;;;;5026040;28;20207;-75
2023/10/26 11:25:36;;;;;;;4.30;1.60;;;;;;;;;;5012122;28;20663;-76
2023/10/26 11:28:07;;;;;;;4.63;1.83;;;;;;;;;;5038295;28;20214;-76
2023/10/26 11:30:52;;;;;;;9.48;5.03;;;;;;;;;;5034701;28;20224;-74
2023/10/26 11:33:39;;;;;;;9.02;2.80;;;;;;;;;;5035420;28;20294;-77
2023/10/26 11:36:14;;;;;;;5.18;1.65;;;;;;;;;;5024141;28;20996;-75
2023/10/26 11:38:48;;;;;;;6.45;1.80;;;;;;;;;;5032988;28;20202;-76
2023/10/26 11:41:22;;;;;;;5.22;1.75;;;;;;;;;;5016159;28;20241;-74
2023/10/26 11:43:49;;;;;;;4.22;1.70;;;;;;;;;;5029958;28;20211;-75
2023/10/26 11:46:27;;;;;;;4.75;1.52;;;;;;;;;;5041083;28;20199;-76
2023/10/26 11:48:55;;;;;;;4.18;1.58;;;;;;;;;;5039645;28;20206;-74
2023/10/26 11:51:22;;;;;;;4.70;1.85;;;;;;;;;;5032422;28;20226;-74
2023/10/26 11:53:49;;;;;;;5.78;1.77;;;;;;;;;;5038696;28;20293;-75
2023/10/26 11:56:19;;;;;;;5.45;1.75;;;;;;;;;;5039729;28;20213;-76
2023/10/26 11:58:53;;;;;;;5.40;1.90;;;;;;;;;;5041837;28;20216;-76
2023/10/26 12:01:20;;;;;;;4.28;1.60;;;;;;;;;;5027205;28;20226;-77
2023/10/26 12:03:48;;;;;;;4.72;1.77;;;;;;;;;;5022073;28;20210;-77
2023/10/26 12:06:22;;;;;;;6.60;2.00;;;;;;;;;;5024885;28;20217;-76
2023/10/26 12:08:50;;;;;;;4.35;2.08;;;;;;;;;;5029351;28;20605;-74
2023/10/26 12:11:17;;;;;;;5.07;2.00;;;;;;;;;;5023495;28;20222;-76
2023/10/26 12:13:44;;;;;;;7.68;2.35;;;;;;;;;;5029885;28;20225;-77
2023/10/26 12:16:12;;;;;;;6.70;2.35;;;;;;;;;;5031588;28;20203;-75
2023/10/26 12:18:39;;;;;;;4.07;1.83;;;;;;;;;;5026987;28;20629;-75
2023/10/26 12:21:06;;;;;;;8.25;2.10;;;;;;;;;;5027999;28;20715;-77
2023/10/26 12:23:34;;;;;;;6.30;2.20;;;;;;;;;;5015834;28;22840;-77
2023/10/26 12:26:01;;;;;;;5.75;1.63;;;;;;;;;;5031363;28;20207;-75
2023/10/26 12:28:28;;;;;;;5.22;2.20;;;;;;;;;;5032656;28;20214;-75
2023/10/26 12:30:57;;;;;;;5.85;1.70;;;;;;;;;;5025806;28;20238;-76
2023/10/26 12:33:24;;;;;;;6.70;2.40;;;;;;;;;;5026954;28;20215;-76
2023/10/26 12:35:52;;;;;;;6.93;1.80;;;;;;;;;;5012243;28;20298;-75
2023/10/26 12:38:23;;;;;;;5.78;1.88;;;;;;;;;;5029037;28;20219;-76
2023/10/26 12:40:50;;;;;;;7.60;2.10;;;;;;;;;;5025832;28;20222;-75
2023/10/26 12:43:18;;;;;;;6.28;1.85;;;;;;;;;;5013422;28;20293;-75
2023/10/26 12:45:45;;;;;;;7.57;1.98;;;;;;;;;;5024472;28;20214;-76
2023/10/26 12:48:12;;;;;;;9.35;3.33;;;;;;;;;;5030136;28;20211;-74
2023/10/26 12:50:40;;;;;;;8.80;2.35;;;;;;;;;;5029537;28;20226;-76
2023/10/26 12:53:07;;;;;;;6.03;1.75;;;;;;;;;;5015152;28;20213;-76
2023/10/26 12:55:34;;;;;;;5.22;1.80;;;;;;;;;;5026023;28;20221;-75
2023/10/26 12:58:05;;;;;;;5.53;1.90;;;;;;;;;;5029021;28;20726;-75
2023/10/26 13:00:32;;;;;;;3.53;1.95;;;;;;;;;;5023584;28;20226;-75
2023/10/26 13:03:00;;;;;;;5.70;1.75;;;;;;;;;;5045267;28;20617;-75
2023/10/26 13:05:27;;;;;;;5.15;1.70;;;;;;;;;;5040997;28;20302;-74
2023/10/26 13:07:56;;;;;;;4.57;1.60;;;;;;;;;;5021879;28;20207;-75
2023/10/26 13:10:23;;;;;;;5.15;1.75;;;;;;;;;;5037198;28;20261;-74
2023/10/26 13:12:51;;;;;;;7.72;1.70;;;;;;;;;;5002338;28;20212;-74
2023/10/26 13:15:18;;;;;;;3.80;1.55;;;;;;;;;;5023241;28;20211;-75
2023/10/26 13:17:47;;;;;;;8.65;1.98;;;;;;;;;;5026985;28;20310;-75
2023/10/26 13:20:15;;;;;;;7.45;2.10;;;;;;;;;;5041570;28;20234;-74
2023/10/26 13:22:50;;;;;;;6.93;2.25;;;;;;;;;;5015383;28;20696;-74
2023/10/26 13:25:17;;;;;;;5.68;1.40;;;;;;;;;;5032980;28;20203;-73
2023/10/26 13:27:46;;;;;;;6.32;1.70;;;;;;;;;;5027833;28;20272;-77
2023/10/26 13:30:23;;;;;;;6.20;1.58;;;;;;;;;;5020249;28;20222;-76
2023/10/26 13:32:50;;;;;;;5.10;1.73;;;;;;;;;;5037254;28;20207;-75
2023/10/26 13:35:20;;;;;;;5.10;1.70;;;;;;;;;;5039374;28;20203;-76
2023/10/26 13:37:54;;;;;;;5.95;2.00;;;;;;;;;;5032002;28;20325;-74
2023/10/26 13:40:21;;;;;;;7.38;1.95;;;;;;;;;;5035328;28;20230;-74
2023/10/26 13:42:56;;;;;;;4.57;1.63;;;;;;;;;;5013672;28;20263;-76
2023/10/26 13:45:34;;;;;;;5.13;1.65;;;;;;;;;;5046305;28;20658;-79
2023/10/26 13:48:04;;;;;;;4.22;1.50;;;;;;;;;;5031431;28;20280;-75
2023/10/26 13:50:34;;;;;;;4.95;1.70;;;;;;;;;;5028240;28;20226;-74
2023/10/26 13:53:03;;;;;;;6.65;2.17;;;;;;;;;;5031643;28;20205;-76
2023/10/26 13:55:33;;;;;;;4.85;1.75;;;;;;;;;;5035631;28;20210;-73
2023/10/26 13:58:11;;;;;;;4.90;1.75;;;;;;;;;;5028355;28;20267;-73
2023/10/26 14:00:41;;;;;;;8.38;2.20;;;;;;;;;;5025220;28;20711;-74
2023/10/26 14:03:11;;;;;;;5.80;1.92;;;;;;;;;;5032211;28;20282;-77
2023/10/26 14:05:56;;;;;;;7.63;1.90;;;;;;;;;;5020134;28;20218;-73
2023/10/26 14:08:36;;;;;;;6.72;1.55;;;;;;;;;;5035014;28;20581;-75
2023/10/26 14:11:09;;;;;;;6.35;2.00;;;;;;;;;;5037550;28;20230;-76
2023/10/26 14:13:36;;;;;;;5.05;1.73;;;;;;;;;;5023678;28;20736;-74
2023/10/26 14:16:09;;;;;;;4.15;1.63;;;;;;;;;;5022517;28;20220;-75
2023/10/26 14:18:56;;;;;;;7.95;2.13;;;;;;;;;;5045116;28;20237;-75
2023/10/26 14:21:24;;;;;;;4.43;1.80;;;;;;;;;;5044430;28;20588;-75
2023/10/26 14:23:57;;;;;;;7.30;1.70;;;;;;;;;;5023862;28;20203;-74
2023/10/26 14:26:25;;;;;;;4.43;2.08;;;;;;;;;;5022458;28;20235;-74
2023/10/26 14:28:52;;;;;;;8.35;2.00;;;;;;;;;;5030241;28;20207;-75
2023/10/26 14:31:19;;;;;;;6.03;1.67;;;;;;;;;;5025993;28;20317;-76
2023/10/26 14:33:47;;;;;;;6.78;1.80;;;;;;;;;;5031813;28;20230;-75
2023/10/26 14:36:14;;;;;;;5.22;1.77;;;;;;;;;;5028122;28;20301;-76
2023/10/26 14:38:41;;;;;;;5.15;1.73;;;;;;;;;;5028685;28;20615;-75
2023/10/26 14:41:08;;;;;;;7.05;1.80;;;;;;;;;;5025969;28;20219;-76
2023/10/26 14:43:36;;;;;;;6.63;1.65;;;;;;;;;;5023198;28;20200;-75
2023/10/26 14:46:03;;;;;;;8.38;2.40;;;;;;;;;;5034687;28;20238;-78
2023/10/26 14:48:31;;;;;;;5.47;2.13;;;;;;;;;;5029954;28;20215;-76
2023/10/26 14:50:58;;;;;;;6.93;2.10;;;;;;;;;;5026097;28;20292;-77
2023/10/26 14:53:26;;;;;;;10.60;2.28;;;;;;;;;;5024585;28;20203;-77
2023/10/26 14:55:59;;;;;;;5.78;2.08;;;;;;;;;;5031578;28;20212;-75
2023/10/26 14:58:31;;;;;;;4.57;2.05;;;;;;;;;;5029243;28;20235;-75
2023/10/26 15:01:02;;;;;;;7.15;2.10;;;;;;;;;;5031499;28;20222;-74
2023/10/26 15:03:31;;;;;;;7.72;2.00;;;;;;;;;;5018399;28;20207;-76
2023/10/26 15:06:04;;;;;;;11.68;3.35;;;;;;;;;;5021023;28;20206;-78